Time;durP1;ratioP1;P1;durP2;ratioP2;P2;SDS_P1;SDS_P2;PMS_P1;PMS_P2;Temp;Humidity;BMP_temperature;BMP_pressure;BME280_temperature;BME280_humidity;BME280_pressure;Samples;Min_cycle;Max_cycle;Signal;HPM_P1;HPM_P2
2023/10/28 00:01:14;;;;;;;4.05;0.50;;;;;;;12.97;100.00;98561.38;7359801;19;20014;-66
2023/10/28 00:03:41;;;;;;;5.47;0.43;;;;;;;12.94;100.00;98554.72;7365448;19;20042;-65
2023/10/28 00:06:08;;;;;;;5.65;0.60;;;;;;;12.93;100.00;98555.72;7388881;19;20082;-65
2023/10/28 00:08:36;;;;;;;6.22;0.50;;;;;;;12.94;100.00;98549.44;7371817;19;20035;-66
2023/10/28 00:11:04;;;;;;;3.55;0.65;;;;;;;12.96;100.00;98541.25;7361810;19;20042;-67
2023/10/28 00:13:31;;;;;;;4.35;0.55;;;;;;;12.92;100.00;98546.19;7359666;19;20010;-65
2023/10/28 00:15:58;;;;;;;4.28;0.60;;;;;;;12.93;100.00;98539.91;7361108;19;20014;-66
2023/10/28 00:18:25;;;;;;;5.45;1.13;;;;;;;12.93;100.00;98533.81;7355858;19;20034;-66
2023/10/28 00:20:52;;;;;;;3.83;0.50;;;;;;;12.93;100.00;98533.81;7359561;19;20442;-66
2023/10/28 00:23:19;;;;;;;4.07;0.50;;;;;;;12.95;100.00;98531.75;7360775;19;20018;-65
2023/10/28 00:25:45;;;;;;;2.55;0.40;;;;;;;12.95;100.00;98534.41;7360678;19;20007;-66
2023/10/28 00:28:13;;;;;;;6.97;0.50;;;;;;;12.96;100.00;98530.72;7359044;19;20010;-67
2023/10/28 00:30:40;;;;;;;4.60;0.40;;;;;;;12.96;100.00;98530.72;7359491;19;20011;-65
2023/10/28 00:33:07;;;;;;;4.20;0.45;;;;;;;12.93;100.00;98528.53;7357134;19;20506;-67
2023/10/28 00:35:36;;;;;;;4.75;0.50;;;;;;;12.88;100.00;98520.47;7358413;19;20502;-65
2023/10/28 00:38:03;;;;;;;3.67;0.50;;;;;;;12.86;100.00;98520.69;7359821;19;20014;-66
2023/10/28 00:40:31;;;;;;;5.55;1.13;;;;;;;12.86;100.00;98518.06;7356633;19;20025;-65
2023/10/28 00:42:59;;;;;;;4.55;0.73;;;;;;;12.83;100.00;98514.06;7356429;19;20015;-66
2023/10/28 00:45:27;;;;;;;4.38;0.40;;;;;;;12.84;100.00;98509.56;7356219;19;20021;-66
2023/10/28 00:47:56;;;;;;;3.20;0.50;;;;;;;12.85;100.00;98514.63;7358515;19;20014;-66
2023/10/28 00:50:23;;;;;;;4.85;1.50;;;;;;;12.86;100.00;98512.78;7357491;19;20014;-66
2023/10/28 00:52:54;;;;;;;4.10;0.50;;;;;;;12.84;100.00;98509.56;7360352;19;21434;-66
2023/10/28 00:55:26;;;;;;;4.35;0.45;;;;;;;12.81;100.00;98487.06;7356872;19;20049;-65
2023/10/28 00:57:53;;;;;;;4.35;0.60;;;;;;;12.80;100.00;98493.38;7355784;19;20007;-66
2023/10/28 01:00:20;;;;;;;4.75;0.40;;;;;;;12.78;100.00;98497.28;7354298;19;20010;-65
2023/10/28 01:02:48;;;;;;;4.40;0.50;;;;;;;12.75;100.00;98495.88;7356594;19;20102;-66
2023/10/28 01:05:16;;;;;;;6.68;0.60;;;;;;;12.70;100.00;98485.19;7354273;19;20023;-66
2023/10/28 01:07:45;;;;;;;4.53;0.50;;;;;;;12.69;100.00;98488.88;7371172;19;20014;-66
2023/10/28 01:10:27;;;;;;;5.97;0.73;;;;;;;12.73;100.00;98491.88;7383999;19;20048;-66
2023/10/28 01:12:54;;;;;;;7.07;0.68;;;;;;;12.74;100.00;98490.84;7386586;19;20018;-65
2023/10/28 01:15:26;;;;;;;4.97;0.75;;;;;;;12.72;100.00;98488.41;7381173;19;20018;-66
2023/10/28 01:17:53;;;;;;;4.22;0.45;;;;;;;12.72;100.00;98474.41;7352701;19;20015;-65
2023/10/28 01:20:21;;;;;;;4.18;0.70;;;;;;;12.71;100.00;98484.16;7357922;19;20014;-66
2023/10/28 01:22:49;;;;;;;3.92;0.80;;;;;;;12.71;100.00;98473.63;7355028;19;20018;-66
2023/10/28 01:25:16;;;;;;;2.47;0.40;;;;;;;12.72;100.00;98474.41;7361199;19;20022;-65
2023/10/28 01:27:44;;;;;;;5.40;0.80;;;;;;;12.74;100.00;98470.53;7357671;19;20018;-66
2023/10/28 01:30:16;;;;;;;2.28;0.45;;;;;;;12.76;100.00;98471.09;7356319;19;20057;-66
2023/10/28 01:32:47;;;;;;;2.90;0.40;;;;;;;12.77;100.00;98471.91;7359906;19;20554;-67
2023/10/28 01:35:14;;;;;;;3.92;0.70;;;;;;;12.79;100.00;98461.94;7354064;19;20025;-66
2023/10/28 01:37:42;;;;;;;2.80;0.60;;;;;;;12.79;100.00;98459.31;7356846;19;20316;-66
2023/10/28 01:40:13;;;;;;;2.17;0.85;;;;;;;12.79;100.00;98464.59;7354661;19;20057;-66
2023/10/28 01:42:42;;;;;;;5.82;0.95;;;;;;;12.81;100.00;98462.50;7358884;19;20800;-66
2023/10/28 01:45:10;;;;;;;1.42;0.43;;;;;;;12.74;100.00;98462.63;7352878;19;20016;-66
2023/10/28 01:47:38;;;;;;;7.72;1.38;;;;;;;12.76;100.00;98460.56;7359137;19;20097;-65
2023/10/28 01:50:07;;;;;;;3.47;0.50;;;;;;;12.78;100.00;98457.69;7355796;19;20708;-67
2023/10/28 01:52:34;;;;;;;4.10;0.70;;;;;;;12.79;100.00;98467.22;7359220;19;20588;-67
2023/10/28 01:55:02;;;;;;;6.03;0.55;;;;;;;12.78;100.00;98449.78;7356387;19;20007;-66
2023/10/28 01:57:30;;;;;;;1.80;0.32;;;;;;;12.77;100.00;98459.53;7358284;19;20022;-65
2023/10/28 01:59:58;;;;;;;1.58;0.40;;;;;;;12.76;100.00;98457.09;7349608;19;20090;-65
2023/10/28 02:02:25;;;;;;;3.35;0.50;;;;;;;12.77;100.00;98448.97;7352243;19;20421;-66
2023/10/28 02:04:52;;;;;;;8.55;0.40;;;;;;;12.76;100.00;98450.00;7349959;19;20395;-66
2023/10/28 02:07:19;;;;;;;4.82;0.40;;;;;;;12.77;100.00;98443.69;7357870;19;20082;-66
2023/10/28 02:09:48;;;;;;;4.55;0.40;;;;;;;12.75;100.00;98429.91;7353921;19;20019;-65
2023/10/28 02:12:15;;;;;;;5.10;0.63;;;;;;;12.73;100.00;98429.34;7356072;19;20109;-67
2023/10/28 02:14:43;;;;;;;4.70;0.40;;;;;;;12.68;100.00;98438.97;7355651;19;20686;-65
2023/10/28 02:17:10;;;;;;;3.33;0.40;;;;;;;12.68;100.00;98429.22;7358166;19;20014;-66
2023/10/28 02:19:39;;;;;;;7.82;0.43;;;;;;;12.67;100.00;98432.88;7351736;19;20019;-64
2023/10/28 02:22:06;;;;;;;7.50;0.43;;;;;;;12.68;100.00;98431.84;7356859;19;20716;-66
2023/10/28 02:24:38;;;;;;;2.30;0.32;;;;;;;12.71;100.00;98425.31;7353477;19;20077;-66
2023/10/28 02:27:05;;;;;;;2.58;0.50;;;;;;;12.71;100.00;98418.19;7357203;19;20028;-69
2023/10/28 02:29:33;;;;;;;10.82;1.92;;;;;;;12.70;100.00;98416.59;7352622;19;20013;-65
2023/10/28 02:32:00;;;;;;;3.17;0.40;;;;;;;12.70;100.00;98418.41;7351546;19;20022;-65
2023/10/28 02:34:27;;;;;;;10.15;0.82;;;;;;;12.69;100.00;98415.00;7351219;19;20420;-67
2023/10/28 02:36:54;;;;;;;5.72;0.65;;;;;;;12.68;100.00;98409.94;7359513;19;20039;-66
2023/10/28 02:39:21;;;;;;;4.28;0.40;;;;;;;12.66;100.00;98409.34;7356590;19;20019;-66
2023/10/28 02:41:48;;;;;;;14.68;1.52;;;;;;;12.63;100.00;98407.19;7358394;19;20423;-66
2023/10/28 02:44:16;;;;;;;4.72;0.60;;;;;;;12.65;100.00;98400.63;7355130;19;20097;-66
2023/10/28 02:46:43;;;;;;;2.97;0.93;;;;;;;12.67;100.00;98398.59;7358182;19;20037;-65
2023/10/28 02:49:11;;;;;;;8.05;0.80;;;;;;;12.68;100.00;98408.13;7348027;19;20018;-67
2023/10/28 02:51:38;;;;;;;5.40;1.25;;;;;;;12.71;100.00;98401.56;7357148;19;20010;-66
2023/10/28 02:54:05;;;;;;;9.32;0.70;;;;;;;12.70;100.00;98399.94;7355849;19;20089;-67
2023/10/28 02:56:32;;;;;;;5.47;0.45;;;;;;;12.69;100.00;98399.19;7355628;19;20090;-66
2023/10/28 02:58:59;;;;;;;19.70;1.25;;;;;;;12.69;100.00;98404.44;7353924;19;20019;-66
2023/10/28 03:01:26;;;;;;;2.92;0.40;;;;;;;12.71;100.00;98410.28;7351727;19;20018;-66
2023/10/28 03:03:53;;;;;;;7.00;0.60;;;;;;;12.70;100.00;98423.69;7349347;19;20007;-66
2023/10/28 03:06:20;;;;;;;4.13;0.30;;;;;;;12.67;100.00;98427.59;7355579;19;20003;-65
2023/10/28 03:08:47;;;;;;;3.70;0.47;;;;;;;12.64;100.00;98422.78;7356482;19;20328;-66
2023/10/28 03:11:14;;;;;;;4.03;0.40;;;;;;;12.64;100.00;98424.63;7357106;19;20527;-66
2023/10/28 03:13:41;;;;;;;2.30;0.30;;;;;;;12.64;100.00;98430.72;7354859;19;20034;-64
2023/10/28 03:16:08;;;;;;;5.80;0.70;;;;;;;12.67;100.00;98432.06;7356509;19;20010;-65
2023/10/28 03:18:35;;;;;;;2.03;0.28;;;;;;;12.64;100.00;98429.91;7351200;19;20467;-67
2023/10/28 03:21:02;;;;;;;2.70;0.40;;;;;;;12.65;100.00;98424.38;7351608;19;20018;-66
2023/10/28 03:23:29;;;;;;;8.20;0.30;;;;;;;12.63;100.00;98415.91;7381401;19;20015;-66
2023/10/28 03:25:56;;;;;;;4.78;1.02;;;;;;;12.67;100.00;98432.88;7377624;19;20015;-66
2023/10/28 03:28:23;;;;;;;21.35;1.75;;;;;;;12.71;100.00;98428.75;7354039;19;21944;-66
2023/10/28 03:30:50;;;;;;;4.35;0.73;;;;;;;12.72;100.00;98425.09;7353703;19;21811;-66
2023/10/28 03:33:17;;;;;;;4.63;1.00;;;;;;;12.69;100.00;98422.91;7349780;19;20018;-66
2023/10/28 03:35:44;;;;;;;2.80;0.32;;;;;;;12.69;100.00;98430.03;7354229;19;20758;-66
2023/10/28 03:38:11;;;;;;;5.88;0.43;;;;;;;12.68;100.00;98434.50;7355115;19;20517;-67
2023/10/28 03:40:39;;;;;;;2.08;0.32;;;;;;;12.65;100.00;98428.84;7355703;19;20014;-66
2023/10/28 03:43:06;;;;;;;3.83;0.60;;;;;;;12.66;100.00;98431.28;7354290;19;20014;-65
2023/10/28 03:45:36;;;;;;;7.13;1.67;;;;;;;12.62;100.00;98429.31;7353056;19;20026;-65
2023/10/28 03:48:03;;;;;;;4.22;0.30;;;;;;;12.60;100.00;98429.53;7362498;19;20055;-65
2023/10/28 03:50:30;;;;;;;5.80;0.60;;;;;;;12.60;100.00;98429.53;7359791;19;20708;-66
2023/10/28 03:52:57;;;;;;;5.50;0.60;;;;;;;12.58;100.00;98423.69;7363579;19;20557;-65
2023/10/28 03:55:25;;;;;;;5.88;0.50;;;;;;;12.57;100.00;98430.00;7362356;19;20021;-66
2023/10/28 03:57:53;;;;;;;5.05;0.55;;;;;;;12.55;100.00;98428.59;7361792;19;20094;-65
2023/10/28 04:00:20;;;;;;;2.00;0.30;;;;;;;12.53;100.00;98435.94;7361996;19;20017;-65
2023/10/28 04:02:47;;;;;;;3.22;0.22;;;;;;;12.47;100.00;98431.56;7355294;19;20580;-66
2023/10/28 04:05:14;;;;;;;6.20;0.40;;;;;;;12.44;100.00;98428.31;7359342;19;20037;-66
2023/10/28 04:07:41;;;;;;;2.25;0.40;;;;;;;12.44;100.00;98428.31;7361313;19;20485;-66
2023/10/28 04:10:08;;;;;;;3.28;0.28;;;;;;;12.41;100.00;98431.44;7359010;19;20636;-67
2023/10/28 04:12:36;;;;;;;2.30;0.45;;;;;;;12.42;100.00;98438.31;7360737;19;20089;-67
2023/10/28 04:15:06;;;;;;;23.42;0.88;;;;;;;12.41;100.00;98436.69;7361789;19;20545;-66
2023/10/28 04:17:33;;;;;;;5.05;0.50;;;;;;;12.43;100.00;98441.75;7359688;19;20073;-66
2023/10/28 04:20:00;;;;;;;2.95;0.38;;;;;;;12.41;100.00;98443.81;7357070;19;20400;-66
2023/10/28 04:22:28;;;;;;;6.13;0.40;;;;;;;12.37;100.00;98440.81;7362438;19;20799;-66
2023/10/28 04:24:56;;;;;;;4.25;0.43;;;;;;;12.36;100.00;98438.41;7361677;19;20582;-67
2023/10/28 04:27:22;;;;;;;2.83;0.40;;;;;;;12.31;100.00;98433.78;7359705;19;20022;-65
2023/10/28 04:29:50;;;;;;;2.42;0.40;;;;;;;12.26;100.00;98438.94;7358992;19;20770;-66
2023/10/28 04:32:20;;;;;;;2.38;0.47;;;;;;;12.26;100.00;98433.66;7355007;19;20002;-66
2023/10/28 04:34:47;;;;;;;3.28;0.47;;;;;;;12.28;100.00;98441.34;7355032;19;20006;-66
2023/10/28 04:37:26;;;;;;;4.55;0.88;;;;;;;12.35;100.00;98434.16;7359488;19;20014;-66
2023/10/28 04:39:53;;;;;;;7.13;1.77;;;;;;;12.39;100.00;98432.69;7354155;19;20014;-65
2023/10/28 04:42:20;;;;;;;6.30;0.75;;;;;;;12.43;100.00;98432.03;7360463;19;20287;-66
2023/10/28 04:44:47;;;;;;;11.25;2.13;;;;;;;12.47;100.00;98435.00;7357442;19;20029;-66
2023/10/28 04:47:14;;;;;;;3.88;0.47;;;;;;;12.47;100.00;98434.19;7357591;19;20760;-67
2023/10/28 04:49:41;;;;;;;4.43;0.57;;;;;;;12.52;100.00;98442.25;7356879;19;20015;-66
2023/10/28 04:52:08;;;;;;;4.22;0.40;;;;;;;12.48;100.00;98435.81;7359812;19;20019;-66
2023/10/28 04:54:38;;;;;;;5.28;0.50;;;;;;;12.50;100.00;98433.72;7358411;19;20081;-66
2023/10/28 04:57:05;;;;;;;3.92;0.47;;;;;;;12.49;100.00;98432.97;7358130;19;20022;-67
2023/10/28 04:59:32;;;;;;;4.13;0.45;;;;;;;12.49;100.00;98432.97;7360167;19;20689;-65
2023/10/28 05:02:00;;;;;;;2.03;0.60;;;;;;;12.49;100.00;98440.88;7359675;19;20452;-66
2023/10/28 05:04:27;;;;;;;9.02;1.40;;;;;;;12.52;100.00;98437.78;7351419;19;20021;-66
2023/10/28 05:06:54;;;;;;;4.78;0.40;;;;;;;12.54;100.00;98438.38;7358038;19;20379;-66
2023/10/28 05:09:21;;;;;;;3.53;0.50;;;;;;;12.54;100.00;98442.84;7357957;19;20011;-65
2023/10/28 05:11:54;;;;;;;3.55;0.30;;;;;;;12.57;100.00;98435.25;7362361;19;20017;-66
2023/10/28 05:14:21;;;;;;;4.00;0.40;;;;;;;12.60;100.00;98436.63;7357290;19;20006;-66
2023/10/28 05:16:48;;;;;;;5.93;0.40;;;;;;;12.58;100.00;98433.44;7359002;19;20019;-64
2023/10/28 05:19:15;;;;;;;3.00;0.52;;;;;;;12.59;100.00;98427.94;7354948;19;20019;-66
2023/10/28 05:21:41;;;;;;;2.38;0.70;;;;;;;12.60;100.00;98434.00;7362469;19;20018;-67
2023/10/28 05:24:09;;;;;;;2.35;0.40;;;;;;;12.62;100.00;98438.03;7358449;19;20018;-66
2023/10/28 05:26:36;;;;;;;3.65;0.50;;;;;;;12.61;100.00;98436.41;7359896;19;20030;-66
2023/10/28 05:29:04;;;;;;;6.85;0.68;;;;;;;12.64;100.00;98441.25;7357017;19;20021;-65
2023/10/28 05:31:30;;;;;;;4.38;0.60;;;;;;;12.64;100.00;98440.44;7358722;19;20582;-66
2023/10/28 05:33:58;;;;;;;8.38;1.00;;;;;;;12.66;100.00;98443.66;7351190;19;21072;-65
2023/10/28 05:36:25;;;;;;;3.30;0.40;;;;;;;12.67;100.00;98450.53;7361053;19;20007;-66
2023/10/28 05:38:54;;;;;;;2.10;0.35;;;;;;;12.64;100.00;98454.44;7357653;19;20018;-65
2023/10/28 05:41:22;;;;;;;4.30;0.68;;;;;;;12.64;100.00;98449.19;7359621;19;20074;-67
2023/10/28 05:43:49;;;;;;;5.40;0.55;;;;;;;12.60;100.00;98453.28;7355641;19;20015;-66
2023/10/28 05:46:17;;;;;;;4.80;0.70;;;;;;;12.60;100.00;98465.66;7360426;19;20038;-67
2023/10/28 05:48:44;;;;;;;4.95;0.40;;;;;;;12.56;100.00;98449.47;7354429;19;20017;-66
2023/10/28 05:51:12;;;;;;;3.33;0.60;;;;;;;12.60;100.00;98447.19;7358864;19;20018;-67
2023/10/28 05:53:39;;;;;;;4.15;0.50;;;;;;;12.64;100.00;98457.09;7354722;19;20139;-67
2023/10/28 05:56:06;;;;;;;5.63;0.73;;;;;;;12.68;100.00;98465.34;7358395;19;20464;-66
2023/10/28 05:58:33;;;;;;;4.03;0.40;;;;;;;12.67;100.00;98464.53;7357512;19;20468;-66
2023/10/28 06:01:01;;;;;;;3.45;0.30;;;;;;;12.70;100.00;98458.00;7356322;19;20319;-67
2023/10/28 06:03:28;;;;;;;2.75;0.40;;;;;;;12.72;100.00;98461.22;7353049;19;20025;-67
2023/10/28 06:05:56;;;;;;;3.03;0.70;;;;;;;12.75;100.00;98466.03;7355317;19;20019;-66
2023/10/28 06:08:23;;;;;;;3.30;0.60;;;;;;;12.72;100.00;98461.22;7358222;19;20014;-65
2023/10/28 06:10:53;;;;;;;4.50;0.50;;;;;;;12.74;100.00;98469.75;7356960;19;20018;-66
2023/10/28 06:13:20;;;;;;;2.95;0.50;;;;;;;12.77;100.00;98456.06;7357875;19;20031;-66
2023/10/28 06:15:47;;;;;;;2.95;0.57;;;;;;;12.77;100.00;98456.88;7354520;19;20049;-66
2023/10/28 06:18:14;;;;;;;4.82;0.50;;;;;;;12.77;100.00;98453.44;7355312;19;20463;-66
2023/10/28 06:20:47;;;;;;;5.05;0.73;;;;;;;12.79;100.00;98454.03;7352580;19;20033;-66
2023/10/28 06:23:15;;;;;;;2.72;0.50;;;;;;;12.79;100.00;98454.84;7356142;19;21408;-66
2023/10/28 06:25:42;;;;;;;1.30;0.20;;;;;;;12.77;100.00;98462.16;7355778;19;20048;-66
2023/10/28 06:28:10;;;;;;;2.70;0.47;;;;;;;12.79;100.00;98456.66;7356423;19;20030;-67
2023/10/28 06:30:53;;;;;;;5.70;0.68;;;;;;;12.81;100.00;98459.88;7354466;19;20601;-66
2023/10/28 06:33:20;;;;;;;1.80;0.43;;;;;;;12.84;100.00;98470.81;7354360;19;20022;-66
2023/10/28 06:35:47;;;;;;;9.80;0.52;;;;;;;12.82;100.00;98467.56;7352454;19;20058;-66
2023/10/28 06:38:14;;;;;;;0.68;0.30;;;;;;;12.83;100.00;98471.00;7357547;19;21064;-66
2023/10/28 06:40:41;;;;;;;1.15;0.30;;;;;;;12.84;100.00;98470.81;7356752;19;20022;-66
2023/10/28 06:43:08;;;;;;;4.53;0.50;;;;;;;12.83;100.00;98482.38;7357061;19;20420;-65
2023/10/28 06:45:35;;;;;;;5.82;1.00;;;;;;;12.84;100.00;98481.34;7355452;19;20073;-65
2023/10/28 06:48:03;;;;;;;2.22;0.40;;;;;;;12.81;100.00;98484.44;7354335;19;20014;-65
2023/10/28 06:50:30;;;;;;;2.42;0.80;;;;;;;12.78;100.00;98486.72;7356805;19;20031;-65
2023/10/28 06:52:59;;;;;;;3.10;0.50;;;;;;;12.80;100.00;98489.91;7356990;19;20018;-66
2023/10/28 06:55:29;;;;;;;3.85;0.60;;;;;;;12.81;100.00;98497.63;7354195;19;20438;-66
2023/10/28 06:57:57;;;;;;;4.13;0.40;;;;;;;12.79;100.00;98499.69;7354944;19;20086;-65
2023/10/28 07:00:27;;;;;;;4.00;0.50;;;;;;;12.79;100.00;98498.91;7354997;19;20017;-65
2023/10/28 07:02:56;;;;;;;3.20;0.30;;;;;;;12.75;100.00;98506.44;7353769;19;20043;-64
2023/10/28 07:05:26;;;;;;;1.33;0.30;;;;;;;12.73;100.00;98508.50;7348938;19;20019;-65
2023/10/28 07:07:56;;;;;;;3.15;0.43;;;;;;;12.70;100.00;98506.31;7350776;19;20025;-67
2023/10/28 07:10:23;;;;;;;4.90;0.80;;;;;;;12.71;100.00;98504.47;7353138;19;20084;-66
2023/10/28 07:12:50;;;;;;;3.85;0.60;;;;;;;12.73;100.00;98507.69;7353468;19;20412;-67
2023/10/28 07:15:18;;;;;;;3.15;0.50;;;;;;;12.72;100.00;98506.91;7354785;19;21648;-66
2023/10/28 07:17:45;;;;;;;3.85;0.50;;;;;;;12.76;100.00;98509.88;7355747;19;20037;-66
2023/10/28 07:20:13;;;;;;;1.60;0.30;;;;;;;12.74;100.00;98512.75;7354447;19;20029;-66
2023/10/28 07:22:41;;;;;;;2.92;0.30;;;;;;;12.74;100.00;98520.69;7363728;19;20074;-66
2023/10/28 07:25:09;;;;;;;5.95;0.50;;;;;;;12.75;100.00;98519.63;7360798;19;20025;-65
2023/10/28 07:27:37;;;;;;;3.92;0.50;;;;;;;12.74;100.00;98533.06;7365213;19;20085;-67
2023/10/28 07:30:05;;;;;;;4.10;0.40;;;;;;;12.78;100.00;98539.50;7355526;19;20534;-66
2023/10/28 07:32:32;;;;;;;1.30;0.60;;;;;;;12.80;100.00;98526.88;7361486;19;20031;-66
2023/10/28 07:34:59;;;;;;;5.07;0.77;;;;;;;12.77;100.00;98536.06;7358218;19;20033;-65
2023/10/28 07:37:26;;;;;;;3.25;0.65;;;;;;;12.78;100.00;98539.50;7359113;19;20079;-65
2023/10/28 07:39:53;;;;;;;3.63;0.60;;;;;;;12.81;100.00;98549.59;7358214;19;20078;-65
2023/10/28 07:42:22;;;;;;;5.70;0.47;;;;;;;12.83;100.00;98552.81;7361076;19;20678;-65
2023/10/28 07:44:51;;;;;;;3.42;0.50;;;;;;;12.81;100.00;98553.03;7355706;19;22057;-65
2023/10/28 07:47:18;;;;;;;8.73;1.00;;;;;;;12.83;100.00;98551.00;7362484;19;20086;-66
2023/10/28 07:49:45;;;;;;;9.43;2.08;;;;;;;12.86;100.00;98542.63;7358792;19;20027;-65
2023/10/28 07:52:12;;;;;;;3.83;0.50;;;;;;;12.90;100.00;98547.47;7362884;19;20118;-65
2023/10/28 07:54:39;;;;;;;7.07;0.70;;;;;;;12.91;100.00;98557.78;7359855;19;20016;-65
2023/10/28 07:57:07;;;;;;;5.43;0.95;;;;;;;12.96;100.00;98559.75;7365237;19;20002;-65
2023/10/28 07:59:34;;;;;;;3.63;0.60;;;;;;;12.99;100.00;98568.03;7360515;19;20014;-66
2023/10/28 08:02:02;;;;;;;7.07;0.50;;;;;;;13.05;100.00;98568.97;7361557;19;20094;-64
2023/10/28 08:04:29;;;;;;;5.45;0.88;;;;;;;13.07;100.00;98565.06;7355965;19;20010;-64
2023/10/28 08:06:56;;;;;;;6.00;0.60;;;;;;;13.07;100.00;98559.78;7356889;19;20130;-65
2023/10/28 08:09:23;;;;;;;6.65;0.80;;;;;;;13.10;100.00;98558.56;7358340;19;20183;-65
2023/10/28 08:11:50;;;;;;;2.42;0.70;;;;;;;13.13;100.00;98560.75;7361784;19;20518;-64
2023/10/28 08:14:17;;;;;;;6.35;1.13;;;;;;;13.16;100.00;98563.75;7359350;19;20029;-66
2023/10/28 08:16:45;;;;;;;4.60;0.68;;;;;;;13.15;100.00;98567.44;7375459;19;20014;-66
2023/10/28 08:19:12;;;;;;;5.43;0.40;;;;;;;13.18;100.00;98571.44;7382698;19;20043;-66
2023/10/28 08:21:40;;;;;;;7.05;0.60;;;;;;;13.15;100.00;98578.00;7369619;19;20021;-65
2023/10/28 08:24:11;;;;;;;6.13;0.55;;;;;;;13.18;100.00;98577.53;7360276;19;20102;-66
2023/10/28 08:26:40;;;;;;;6.38;0.75;;;;;;;13.21;100.00;98577.06;7362247;19;20014;-65
2023/10/28 08:29:07;;;;;;;5.78;1.77;;;;;;;13.25;100.00;98590.66;7359099;19;20103;-66
2023/10/28 08:31:35;;;;;;;5.72;0.70;;;;;;;13.25;100.00;98591.47;7358846;19;20014;-65
2023/10/28 08:34:04;;;;;;;6.43;1.25;;;;;;;13.30;100.00;98584.69;7354381;19;20014;-65
2023/10/28 08:36:34;;;;;;;6.72;0.60;;;;;;;13.33;100.00;98592.16;7360795;19;20025;-65
2023/10/28 08:39:01;;;;;;;4.90;0.70;;;;;;;13.36;100.00;98589.88;7357764;19;20007;-65
2023/10/28 08:41:29;;;;;;;7.38;0.88;;;;;;;13.40;100.00;98584.94;7360716;19;20018;-66
2023/10/28 08:43:56;;;;;;;8.82;0.52;;;;;;;13.44;100.00;98591.38;7357772;19;20565;-64
2023/10/28 08:46:24;;;;;;;5.82;0.47;;;;;;;13.40;100.00;98583.13;7358785;19;20025;-65
2023/10/28 08:48:56;;;;;;;6.90;0.60;;;;;;;13.39;100.00;98593.91;7353348;19;20014;-65
2023/10/28 08:51:23;;;;;;;9.52;0.60;;;;;;;13.37;100.00;98588.84;7357728;19;20018;-65
2023/10/28 08:53:55;;;;;;;8.45;1.15;;;;;;;13.41;100.00;98589.22;7357057;19;20074;-65
2023/10/28 08:56:25;;;;;;;7.68;1.15;;;;;;;13.43;100.00;98590.59;7361142;19;20021;-64
2023/10/28 08:58:53;;;;;;;5.50;0.80;;;;;;;13.44;100.00;98589.56;7357889;19;20011;-65
2023/10/28 09:01:22;;;;;;;8.65;1.08;;;;;;;13.47;100.00;98585.63;7365214;19;20022;-64
2023/10/28 09:03:56;;;;;;;5.68;0.80;;;;;;;13.49;100.00;98584.41;7358185;19;20428;-65
2023/10/28 09:06:24;;;;;;;10.15;1.02;;;;;;;13.50;100.00;98583.38;7356102;19;20014;-66
2023/10/28 09:08:51;;;;;;;11.73;1.15;;;;;;;13.53;100.00;98592.66;7352216;19;20590;-65
2023/10/28 09:11:20;;;;;;;9.98;0.80;;;;;;;13.58;100.00;98603.34;7386710;19;20022;-65
2023/10/28 09:13:46;;;;;;;3.42;0.70;;;;;;;13.60;100.00;98599.47;7379666;19;20019;-66
2023/10/28 09:16:16;;;;;;;4.95;0.70;;;;;;;13.63;100.00;98596.34;7359178;19;20015;-65
2023/10/28 09:18:44;;;;;;;8.82;0.73;;;;;;;13.67;100.00;98599.34;7356559;19;20013;-65
2023/10/28 09:21:12;;;;;;;5.93;0.60;;;;;;;13.71;100.00;98606.59;7355600;19;20035;-66
2023/10/28 09:23:41;;;;;;;8.70;0.90;;;;;;;13.79;100.00;98615.22;7356558;19;20003;-65
2023/10/28 09:26:08;;;;;;;10.68;0.80;;;;;;;13.84;100.00;98621.44;7360640;19;20039;-65
2023/10/28 09:28:43;;;;;;;8.73;1.52;;;;;;;13.87;100.00;98618.31;7357189;19;20401;-64
2023/10/28 09:31:10;;;;;;;8.35;0.75;;;;;;;13.91;100.00;98631.91;7360084;19;20468;-65
2023/10/28 09:33:38;;;;;;;10.77;1.15;;;;;;;13.94;100.00;98623.50;7355370;19;20021;-65
2023/10/28 09:36:07;;;;;;;10.90;0.63;;;;;;;14.00;100.00;98627.88;7358477;19;20028;-65
2023/10/28 09:38:36;;;;;;;7.05;0.82;;;;;;;14.09;100.00;98631.78;7358622;19;20010;-66
2023/10/28 09:41:08;;;;;;;14.40;1.08;;;;;;;14.18;100.00;98625.13;7360780;19;20676;-65
2023/10/28 09:43:36;;;;;;;6.63;1.10;;;;;;;14.24;100.00;98623.41;7355068;19;20024;-66
2023/10/28 09:46:05;;;;;;;6.60;0.68;;;;;;;14.31;100.00;98622.25;7356242;19;20018;-66
2023/10/28 09:48:34;;;;;;;9.40;0.77;;;;;;;14.34;100.00;98621.78;7354128;19;20018;-64
2023/10/28 09:51:02;;;;;;;5.45;0.80;;;;;;;14.38;100.00;98622.16;7358029;19;20010;-65
2023/10/28 09:53:33;;;;;;;10.35;0.70;;;;;;;14.43;100.00;98627.53;7356012;19;20022;-64
2023/10/28 09:56:04;;;;;;;6.90;0.57;;;;;;;14.45;100.00;98628.13;7358462;19;20376;-65
2023/10/28 09:58:41;;;;;;;9.10;0.55;;;;;;;14.51;100.00;98627.22;7357140;19;20019;-66
2023/10/28 10:01:27;;;;;;;10.70;0.70;;;;;;;14.60;100.00;98625.00;7358842;19;20032;-65
2023/10/28 10:04:04;;;;;;;8.27;0.63;;;;;;;14.63;100.00;98624.53;7348314;19;20073;-66
2023/10/28 10:06:31;;;;;;;7.78;0.90;;;;;;;14.68;100.00;98629.94;7355033;19;20459;-65
2023/10/28 10:09:00;;;;;;;6.53;0.70;;;;;;;14.70;99.54;98641.09;7352372;19;20028;-65
2023/10/28 10:11:27;;;;;;;9.70;1.10;;;;;;;14.79;99.87;98639.69;7337492;19;20049;-63
2023/10/28 10:13:57;;;;;;;7.75;0.70;;;;;;;14.83;99.28;98643.50;7349262;19;20065;-64
2023/10/28 10:16:38;;;;;;;7.40;0.73;;;;;;;14.88;99.34;98652.31;7357298;19;20018;-64
2023/10/28 10:19:10;;;;;;;10.43;0.82;;;;;;;14.92;98.81;98647.38;7345029;19;20034;-64
2023/10/28 10:21:38;;;;;;;10.85;0.98;;;;;;;14.95;98.12;98654.84;7357688;19;20019;-64
2023/10/28 10:24:06;;;;;;;7.20;0.90;;;;;;;14.94;97.43;98651.38;7355849;19;20102;-65
2023/10/28 10:26:35;;;;;;;8.70;0.70;;;;;;;15.03;97.75;98658.97;7354967;19;20065;-64
2023/10/28 10:29:06;;;;;;;11.07;0.63;;;;;;;15.08;97.22;98653.78;7350200;19;20014;-65
2023/10/28 10:31:36;;;;;;;10.10;0.57;;;;;;;15.11;96.31;98653.28;7356029;19;20043;-65
2023/10/28 10:34:06;;;;;;;8.40;0.63;;;;;;;15.14;96.11;98652.81;7350683;19;20385;-64
2023/10/28 10:36:41;;;;;;;12.13;0.98;;;;;;;15.18;96.71;98648.66;7358845;19;20118;-64
2023/10/28 10:39:14;;;;;;;16.02;1.13;;;;;;;15.23;96.06;98644.28;7355427;19;20118;-63
2023/10/28 10:41:49;;;;;;;10.23;0.80;;;;;;;15.30;95.49;98655.53;7357348;19;20011;-64
2023/10/28 10:44:32;;;;;;;12.40;0.80;;;;;;;15.36;95.12;98659.06;7354033;19;20206;-64
2023/10/28 10:46:59;;;;;;;9.82;0.90;;;;;;;15.38;95.07;98660.47;7355376;19;20024;-64
2023/10/28 10:49:30;;;;;;;13.68;1.30;;;;;;;15.43;95.08;98654.44;7350240;19;20654;-64
2023/10/28 10:52:01;;;;;;;11.68;0.85;;;;;;;15.53;94.47;98653.84;7353126;19;20078;-65
2023/10/28 10:54:33;;;;;;;11.35;0.68;;;;;;;15.62;94.27;98649.75;7354682;19;20010;-65
2023/10/28 10:57:01;;;;;;;13.13;1.25;;;;;;;15.74;94.72;98653.16;7365253;19;20357;-64
2023/10/28 10:59:31;;;;;;;11.05;0.80;;;;;;;15.73;93.50;98654.19;7364473;19;20018;-65
2023/10/28 11:02:02;;;;;;;13.32;1.00;;;;;;;15.69;92.53;98648.56;7392012;19;20114;-65
2023/10/28 11:04:31;;;;;;;18.00;1.27;;;;;;;15.70;93.07;98655.47;7379083;19;20014;-64
2023/10/28 11:07:00;;;;;;;11.15;0.90;;;;;;;15.68;92.87;98649.59;7384035;19;20011;-64
2023/10/28 11:09:29;;;;;;;14.70;1.30;;;;;;;15.67;92.58;98647.19;7376355;19;20372;-65
2023/10/28 11:11:56;;;;;;;13.60;1.15;;;;;;;15.64;92.79;98645.84;7361809;19;20141;-64
2023/10/28 11:14:24;;;;;;;10.93;1.00;;;;;;;15.62;92.49;98644.44;7358623;19;21292;-64
2023/10/28 11:16:51;;;;;;;10.50;0.90;;;;;;;15.66;92.90;98633.13;7367664;19;20557;-64
2023/10/28 11:19:19;;;;;;;17.55;1.10;;;;;;;15.69;92.38;98637.97;7358406;19;20732;-64
2023/10/28 11:21:47;;;;;;;13.85;1.13;;;;;;;15.68;91.50;98640.84;7360699;19;19998;-65
2023/10/28 11:24:15;;;;;;;19.95;1.33;;;;;;;15.69;91.79;98639.81;7360933;19;20029;-64
2023/10/28 11:26:49;;;;;;;16.60;1.13;;;;;;;15.70;91.81;98620.19;7361588;19;20077;-67
2023/10/28 11:29:16;;;;;;;16.92;1.13;;;;;;;15.70;91.48;98620.19;7360056;19;20011;-64